Kenbridge, Virginia
Current Conditions -  °F | °C
As of 9:55 AM on Saturday 01 Nov 2014 (Local Time) from KW31 Reporting Station
Overcast Overcast  
Wind Chill: 42°   Ceiling: 2300
Heat Index: 47°   Visibility: 10mi
Dew Point: 38°   Wind: 10mph
Humidity: 71%   Direction: 350°N
Pressure: 29.75"   Gusts: 18mph
Location:  36.96°N, 78.13°W
Report Text: KW31 011355Z AUTO 35009G16KT 10SM BKN023 OVC027 08/03 A2975 RMK AO1 T00830033
Loading
Personal Weather Stations






























Interactive Weather Map
Tropical Storm Tracking
New forecast layout! Learn more

10-Day Weather Forecast

Advertisements
Track Severe Weather on mobile